TimeHST,TemperatureF,Dew PointF,Humidity,Sea Level PressureIn,VisibilityMPH,Wind Direction,Wind SpeedMPH,Gust SpeedMPH,PrecipitationIn,Events,Conditions,WindDirDegrees,DateUTC
12:53 AM,75.0,66.9,76,30.06,10.0,NE,4.6,-,N/A,,Scattered Clouds,40,2012-10-31 10:53:00
1:53 AM,75.0,66.0,73,30.04,10.0,ENE,4.6,-,N/A,,Partly Cloudy,70,2012-10-31 11:53:00
2:53 AM,73.0,66.0,79,30.03,10.0,Calm,Calm,-,N/A,,Scattered Clouds,0,2012-10-31 12:53:00
3:53 AM,72.0,66.9,84,30.03,10.0,WSW,3.5,-,N/A,,Mostly Cloudy,240,2012-10-31 13:53:00
4:53 AM,72.0,68.0,87,30.02,10.0,NW,4.6,-,N/A,,Scattered Clouds,320,2012-10-31 14:53:00
5:53 AM,72.0,68.0,87,30.04,10.0,NNW,5.8,-,N/A,,Scattered Clouds,340,2012-10-31 15:53:00
6:53 AM,73.0,66.9,81,30.05,10.0,NNW,4.6,-,N/A,,Scattered Clouds,340,2012-10-31 16:53:00
7:53 AM,77.0,66.9,71,30.05,10.0,North,6.9,-,N/A,,Scattered Clouds,10,2012-10-31 17:53:00
8:53 AM,79.0,66.0,64,30.06,10.0,Variable,5.8,-,N/A,,Scattered Clouds,0,2012-10-31 18:53:00
9:53 AM,80.1,64.9,60,30.07,10.0,NE,12.7,17.3,N/A,,Mostly Cloudy,40,2012-10-31 19:53:00
10:53 AM,82.9,62.1,49,30.06,10.0,NE,10.4,20.7,N/A,,Scattered Clouds,40,2012-10-31 20:53:00
11:53 AM,82.9,64.9,54,30.04,10.0,NE,12.7,-,N/A,,Scattered Clouds,40,2012-10-31 21:53:00
12:53 PM,84.9,62.1,46,30.01,10.0,NE,11.5,-,N/A,,Scattered Clouds,40,2012-10-31 22:53:00
1:53 PM,84.9,64.0,49,29.99,10.0,ENE,16.1,20.7,N/A,,Scattered Clouds,60,2012-10-31 23:53:00
2:53 PM,82.9,63.0,51,29.98,10.0,NNE,9.2,20.7,N/A,,Scattered Clouds,20,2012-11-01 00:53:00
3:53 PM,82.0,63.0,52,29.98,10.0,ENE,10.4,-,N/A,,Scattered Clouds,70,2012-11-01 01:53:00
4:53 PM,80.1,63.0,56,29.99,10.0,ENE,11.5,-,N/A,,Scattered Clouds,70,2012-11-01 02:53:00
5:53 PM,78.1,64.0,62,29.99,10.0,NE,12.7,-,N/A,,Scattered Clouds,50,2012-11-01 03:53:00
6:53 PM,77.0,64.0,64,30.01,10.0,ENE,12.7,-,N/A,,Partly Cloudy,60,2012-11-01 04:53:00
7:53 PM,75.9,64.0,67,30.03,10.0,ENE,10.4,-,N/A,,Partly Cloudy,70,2012-11-01 05:53:00
8:53 PM,75.9,63.0,64,30.04,10.0,ENE,10.4,-,N/A,,Partly Cloudy,70,2012-11-01 06:53:00
9:53 PM,75.0,63.0,66,30.04,10.0,ENE,9.2,-,N/A,,Partly Cloudy,60,2012-11-01 07:53:00
10:53 PM,75.0,64.0,69,30.05,10.0,NE,6.9,-,N/A,,Partly Cloudy,50,2012-11-01 08:53:00
11:53 PM,73.9,64.0,71,30.03,10.0,ENE,6.9,-,N/A,,Partly Cloudy,60,2012-11-01 09:53:00